sensor_id;sensor_type;location;lat;lon;timestamp;temperature;humidity
68128;SHT30;54931;52.098;21.006;2022-08-21T00:01:52;22.44;66.98
68128;SHT30;54931;52.098;21.006;2022-08-21T00:04:20;22.40;67.05
68128;SHT30;54931;52.098;21.006;2022-08-21T00:06:49;22.38;67.29
68128;SHT30;54931;52.098;21.006;2022-08-21T00:09:19;22.33;67.23
68128;SHT30;54931;52.098;21.006;2022-08-21T00:11:47;22.32;67.31
68128;SHT30;54931;52.098;21.006;2022-08-21T00:14:15;22.31;67.40
68128;SHT30;54931;52.098;21.006;2022-08-21T00:16:43;22.25;67.88
68128;SHT30;54931;52.098;21.006;2022-08-21T00:19:11;22.17;68.15
68128;SHT30;54931;52.098;21.006;2022-08-21T00:21:39;22.10;68.39
68128;SHT30;54931;52.098;21.006;2022-08-21T00:24:06;22.06;68.41
68128;SHT30;54931;52.098;21.006;2022-08-21T00:26:34;22.02;68.68
68128;SHT30;54931;52.098;21.006;2022-08-21T00:29:01;21.98;68.75
68128;SHT30;54931;52.098;21.006;2022-08-21T00:31:30;21.94;68.80
68128;SHT30;54931;52.098;21.006;2022-08-21T00:33:58;21.92;68.87
68128;SHT30;54931;52.098;21.006;2022-08-21T00:36:25;21.90;69.04
68128;SHT30;54931;52.098;21.006;2022-08-21T00:38:53;21.86;69.31
68128;SHT30;54931;52.098;21.006;2022-08-21T00:41:20;21.82;69.30
68128;SHT30;54931;52.098;21.006;2022-08-21T00:43:49;21.78;69.57
68128;SHT30;54931;52.098;21.006;2022-08-21T00:46:18;21.71;69.66
68128;SHT30;54931;52.098;21.006;2022-08-21T00:48:46;21.67;69.94
68128;SHT30;54931;52.098;21.006;2022-08-21T00:51:17;21.62;70.09
68128;SHT30;54931;52.098;21.006;2022-08-21T00:53:55;21.58;70.06
68128;SHT30;54931;52.098;21.006;2022-08-21T00:56:27;21.55;70.21
68128;SHT30;54931;52.098;21.006;2022-08-21T00:58:56;21.53;70.19
68128;SHT30;54931;52.098;21.006;2022-08-21T01:01:26;21.53;70.20
68128;SHT30;54931;52.098;21.006;2022-08-21T01:03:54;21.51;70.41
68128;SHT30;54931;52.098;21.006;2022-08-21T01:06:21;21.48;70.48
68128;SHT30;54931;52.098;21.006;2022-08-21T01:08:49;21.48;70.33
68128;SHT30;54931;52.098;21.006;2022-08-21T01:11:17;21.48;70.43
68128;SHT30;54931;52.098;21.006;2022-08-21T01:13:45;21.47;70.47
68128;SHT30;54931;52.098;21.006;2022-08-21T01:16:15;21.48;70.44
68128;SHT30;54931;52.098;21.006;2022-08-21T01:18:47;21.49;70.41
68128;SHT30;54931;52.098;21.006;2022-08-21T01:21:21;21.45;70.41
68128;SHT30;54931;52.098;21.006;2022-08-21T01:23:52;21.41;70.56
68128;SHT30;54931;52.098;21.006;2022-08-21T01:26:24;21.40;70.62
68128;SHT30;54931;52.098;21.006;2022-08-21T01:29:15;21.39;70.61
68128;SHT30;54931;52.098;21.006;2022-08-21T01:32:13;21.35;70.76
68128;SHT30;54931;52.098;21.006;2022-08-21T01:34:44;21.34;70.78
68128;SHT30;54931;52.098;21.006;2022-08-21T01:37:14;21.32;70.82
68128;SHT30;54931;52.098;21.006;2022-08-21T01:39:44;21.26;70.87
68128;SHT30;54931;52.098;21.006;2022-08-21T01:42:12;21.19;71.01
68128;SHT30;54931;52.098;21.006;2022-08-21T01:44:41;21.11;71.32
68128;SHT30;54931;52.098;21.006;2022-08-21T01:47:10;21.05;71.58
68128;SHT30;54931;52.098;21.006;2022-08-21T01:49:40;21.04;71.62
68128;SHT30;54931;52.098;21.006;2022-08-21T01:52:10;21.02;71.69
68128;SHT30;54931;52.098;21.006;2022-08-21T01:54:38;21.00;71.89
68128;SHT30;54931;52.098;21.006;2022-08-21T01:57:06;21.00;71.91
68128;SHT30;54931;52.098;21.006;2022-08-21T01:59:36;20.99;71.88
68128;SHT30;54931;52.098;21.006;2022-08-21T02:02:04;20.99;71.91
68128;SHT30;54931;52.098;21.006;2022-08-21T02:04:32;20.94;71.93
68128;SHT30;54931;52.098;21.006;2022-08-21T02:07:00;20.94;72.02
68128;SHT30;54931;52.098;21.006;2022-08-21T02:09:28;20.93;72.06
68128;SHT30;54931;52.098;21.006;2022-08-21T02:11:56;20.93;72.17
68128;SHT30;54931;52.098;21.006;2022-08-21T02:14:24;20.88;72.18
68128;SHT30;54931;52.098;21.006;2022-08-21T02:16:51;20.89;72.28
68128;SHT30;54931;52.098;21.006;2022-08-21T02:19:19;20.87;72.24
68128;SHT30;54931;52.098;21.006;2022-08-21T02:21:47;20.86;72.30
68128;SHT30;54931;52.098;21.006;2022-08-21T02:24:14;20.85;72.30
68128;SHT30;54931;52.098;21.006;2022-08-21T02:26:42;20.82;72.31
68128;SHT30;54931;52.098;21.006;2022-08-21T02:29:09;20.81;72.44
68128;SHT30;54931;52.098;21.006;2022-08-21T02:31:36;20.83;72.45
68128;SHT30;54931;52.098;21.006;2022-08-21T02:34:04;20.80;72.56
68128;SHT30;54931;52.098;21.006;2022-08-21T02:36:31;20.75;72.66
68128;SHT30;54931;52.098;21.006;2022-08-21T02:38:59;20.75;72.69
68128;SHT30;54931;52.098;21.006;2022-08-21T02:41:27;20.75;72.66
68128;SHT30;54931;52.098;21.006;2022-08-21T02:43:54;20.72;72.68
68128;SHT30;54931;52.098;21.006;2022-08-21T02:46:21;20.69;72.68
68128;SHT30;54931;52.098;21.006;2022-08-21T02:48:49;20.68;72.69
68128;SHT30;54931;52.098;21.006;2022-08-21T02:51:18;20.62;72.74
68128;SHT30;54931;52.098;21.006;2022-08-21T02:53:46;20.58;72.85
68128;SHT30;54931;52.098;21.006;2022-08-21T02:56:16;20.55;72.98
68128;SHT30;54931;52.098;21.006;2022-08-21T02:58:48;20.54;73.11
68128;SHT30;54931;52.098;21.006;2022-08-21T03:01:18;20.53;73.20
68128;SHT30;54931;52.098;21.006;2022-08-21T03:03:46;20.53;73.19
68128;SHT30;54931;52.098;21.006;2022-08-21T03:06:19;20.47;73.20
68128;SHT30;54931;52.098;21.006;2022-08-21T03:08:48;20.42;73.33
68128;SHT30;54931;52.098;21.006;2022-08-21T03:11:16;20.37;73.38
68128;SHT30;54931;52.098;21.006;2022-08-21T03:13:45;20.29;73.51
68128;SHT30;54931;52.098;21.006;2022-08-21T03:16:13;20.22;73.67
68128;SHT30;54931;52.098;21.006;2022-08-21T03:18:41;20.21;73.92
68128;SHT30;54931;52.098;21.006;2022-08-21T03:21:09;20.20;74.01
68128;SHT30;54931;52.098;21.006;2022-08-21T03:23:37;20.20;74.16
68128;SHT30;54931;52.098;21.006;2022-08-21T03:26:06;20.22;74.10
68128;SHT30;54931;52.098;21.006;2022-08-21T03:28:34;20.21;74.10
68128;SHT30;54931;52.098;21.006;2022-08-21T03:31:01;20.17;74.16
68128;SHT30;54931;52.098;21.006;2022-08-21T03:33:29;20.15;74.35
68128;SHT30;54931;52.098;21.006;2022-08-21T03:35:58;20.19;74.44
68128;SHT30;54931;52.098;21.006;2022-08-21T03:38:32;20.24;74.41
68128;SHT30;54931;52.098;21.006;2022-08-21T03:41:02;20.23;74.38
68128;SHT30;54931;52.098;21.006;2022-08-21T03:43:32;20.24;74.33
68128;SHT30;54931;52.098;21.006;2022-08-21T03:46:00;20.23;74.53
68128;SHT30;54931;52.098;21.006;2022-08-21T03:48:30;20.17;75.06
68128;SHT30;54931;52.098;21.006;2022-08-21T03:50:59;20.16;75.00
68128;SHT30;54931;52.098;21.006;2022-08-21T03:53:26;20.15;75.06
68128;SHT30;54931;52.098;21.006;2022-08-21T03:55:54;20.16;74.96
68128;SHT30;54931;52.098;21.006;2022-08-21T03:58:23;20.18;74.95
68128;SHT30;54931;52.098;21.006;2022-08-21T04:00:54;20.22;74.85
68128;SHT30;54931;52.098;21.006;2022-08-21T04:03:25;20.24;75.00
68128;SHT30;54931;52.098;21.006;2022-08-21T04:05:54;20.27;74.94
68128;SHT30;54931;52.098;21.006;2022-08-21T04:08:22;20.31;74.81
68128;SHT30;54931;52.098;21.006;2022-08-21T04:10:51;20.39;74.70
68128;SHT30;54931;52.098;21.006;2022-08-21T04:13:22;20.46;74.62
68128;SHT30;54931;52.098;21.006;2022-08-21T04:15:50;20.51;74.41
68128;SHT30;54931;52.098;21.006;2022-08-21T04:18:17;20.56;74.23
68128;SHT30;54931;52.098;21.006;2022-08-21T04:20:46;20.64;74.09
68128;SHT30;54931;52.098;21.006;2022-08-21T04:23:19;20.70;73.95
68128;SHT30;54931;52.098;21.006;2022-08-21T04:25:48;20.78;73.84
68128;SHT30;54931;52.098;21.006;2022-08-21T04:28:15;20.83;73.58
68128;SHT30;54931;52.098;21.006;2022-08-21T04:30:43;20.88;73.45
68128;SHT30;54931;52.098;21.006;2022-08-21T04:33:11;20.94;73.30
68128;SHT30;54931;52.098;21.006;2022-08-21T04:35:39;21.02;73.14
68128;SHT30;54931;52.098;21.006;2022-08-21T04:38:08;21.15;72.91
68128;SHT30;54931;52.098;21.006;2022-08-21T04:40:37;21.25;72.46
68128;SHT30;54931;52.098;21.006;2022-08-21T04:43:06;21.26;72.19
68128;SHT30;54931;52.098;21.006;2022-08-21T04:45:37;21.30;72.16
68128;SHT30;54931;52.098;21.006;2022-08-21T04:48:12;21.44;71.82
68128;SHT30;54931;52.098;21.006;2022-08-21T04:53:31;21.93;71.02
68128;SHT30;54931;52.098;21.006;2022-08-21T04:56:18;22.28;70.37
68128;SHT30;54931;52.098;21.006;2022-08-21T04:58:55;22.49;69.05
68128;SHT30;54931;52.098;21.006;2022-08-21T05:01:31;22.66;69.02
68128;SHT30;54931;52.098;21.006;2022-08-21T05:04:02;22.83;67.99
68128;SHT30;54931;52.098;21.006;2022-08-21T05:06:35;22.91;67.85
68128;SHT30;54931;52.098;21.006;2022-08-21T05:09:05;23.09;67.22
68128;SHT30;54931;52.098;21.006;2022-08-21T05:11:35;23.18;66.62
68128;SHT30;54931;52.098;21.006;2022-08-21T05:14:04;23.31;66.43
68128;SHT30;54931;52.098;21.006;2022-08-21T05:16:31;23.35;65.67
68128;SHT30;54931;52.098;21.006;2022-08-21T05:18:58;23.30;65.40
68128;SHT30;54931;52.098;21.006;2022-08-21T05:21:26;23.30;65.44
68128;SHT30;54931;52.098;21.006;2022-08-21T05:23:54;23.37;65.15
68128;SHT30;54931;52.098;21.006;2022-08-21T05:26:21;23.55;65.35
68128;SHT30;54931;52.098;21.006;2022-08-21T05:28:48;23.79;64.65
68128;SHT30;54931;52.098;21.006;2022-08-21T05:31:16;23.94;64.10
68128;SHT30;54931;52.098;21.006;2022-08-21T05:33:43;24.04;63.65
68128;SHT30;54931;52.098;21.006;2022-08-21T05:36:11;24.14;63.43
68128;SHT30;54931;52.098;21.006;2022-08-21T05:38:38;24.30;63.09
68128;SHT30;54931;52.098;21.006;2022-08-21T05:41:07;24.56;62.70
68128;SHT30;54931;52.098;21.006;2022-08-21T05:43:34;24.53;62.08
68128;SHT30;54931;52.098;21.006;2022-08-21T05:46:03;24.50;62.21
68128;SHT30;54931;52.098;21.006;2022-08-21T05:48:34;24.57;62.58
68128;SHT30;54931;52.098;21.006;2022-08-21T05:51:06;24.58;61.98
68128;SHT30;54931;52.098;21.006;2022-08-21T05:53:38;24.58;62.04
68128;SHT30;54931;52.098;21.006;2022-08-21T05:56:09;24.68;61.97
68128;SHT30;54931;52.098;21.006;2022-08-21T05:58:38;24.78;62.10
68128;SHT30;54931;52.098;21.006;2022-08-21T06:01:06;25.10;62.25
68128;SHT30;54931;52.098;21.006;2022-08-21T06:03:36;25.45;61.33
68128;SHT30;54931;52.098;21.006;2022-08-21T06:06:07;25.50;60.65
68128;SHT30;54931;52.098;21.006;2022-08-21T06:08:36;25.64;60.74
68128;SHT30;54931;52.098;21.006;2022-08-21T06:11:04;25.73;59.86
68128;SHT30;54931;52.098;21.006;2022-08-21T06:13:33;25.75;59.69
68128;SHT30;54931;52.098;21.006;2022-08-21T06:18:42;26.41;58.69
68128;SHT30;54931;52.098;21.006;2022-08-21T06:21:12;26.57;57.56
68128;SHT30;54931;52.098;21.006;2022-08-21T06:23:40;26.33;57.09
68128;SHT30;54931;52.098;21.006;2022-08-21T06:26:10;25.85;58.42
68128;SHT30;54931;52.098;21.006;2022-08-21T06:28:44;25.58;59.12
68128;SHT30;54931;52.098;21.006;2022-08-21T06:31:16;25.38;60.05
68128;SHT30;54931;52.098;21.006;2022-08-21T06:33:50;25.25;60.29
68128;SHT30;54931;52.098;21.006;2022-08-21T06:36:18;25.09;60.96
68128;SHT30;54931;52.098;21.006;2022-08-21T06:38:49;25.06;60.98
68128;SHT30;54931;52.098;21.006;2022-08-21T06:41:17;24.98;61.22
68128;SHT30;54931;52.098;21.006;2022-08-21T06:43:46;24.97;61.55
68128;SHT30;54931;52.098;21.006;2022-08-21T06:46:13;24.99;61.81
68128;SHT30;54931;52.098;21.006;2022-08-21T06:48:41;25.06;61.57
68128;SHT30;54931;52.098;21.006;2022-08-21T06:51:08;25.24;61.04
68128;SHT30;54931;52.098;21.006;2022-08-21T06:53:36;25.59;60.50
68128;SHT30;54931;52.098;21.006;2022-08-21T06:56:04;25.89;59.81
68128;SHT30;54931;52.098;21.006;2022-08-21T06:58:32;26.19;59.58
68128;SHT30;54931;52.098;21.006;2022-08-21T07:00:59;26.47;59.16
68128;SHT30;54931;52.098;21.006;2022-08-21T07:03:29;26.92;58.61
68128;SHT30;54931;52.098;21.006;2022-08-21T07:06:00;27.32;57.82
68128;SHT30;54931;52.098;21.006;2022-08-21T07:08:29;27.56;57.31
68128;SHT30;54931;52.098;21.006;2022-08-21T07:10:57;27.89;56.52
68128;SHT30;54931;52.098;21.006;2022-08-21T07:13:28;28.16;56.13
68128;SHT30;54931;52.098;21.006;2022-08-21T07:15:55;28.31;54.61
68128;SHT30;54931;52.098;21.006;2022-08-21T07:18:23;28.48;54.39
68128;SHT30;54931;52.098;21.006;2022-08-21T07:20:50;28.68;53.46
68128;SHT30;54931;52.098;21.006;2022-08-21T07:23:28;28.92;53.44
68128;SHT30;54931;52.098;21.006;2022-08-21T07:25:59;28.97;52.18
68128;SHT30;54931;52.098;21.006;2022-08-21T07:28:28;29.00;52.38
68128;SHT30;54931;52.098;21.006;2022-08-21T07:30:57;29.10;52.80
68128;SHT30;54931;52.098;21.006;2022-08-21T07:33:27;29.38;51.96
68128;SHT30;54931;52.098;21.006;2022-08-21T07:35:57;29.45;52.25
68128;SHT30;54931;52.098;21.006;2022-08-21T07:38:26;29.50;50.73
68128;SHT30;54931;52.098;21.006;2022-08-21T07:40:54;29.42;51.32
68128;SHT30;54931;52.098;21.006;2022-08-21T07:43:26;29.48;51.58
68128;SHT30;54931;52.098;21.006;2022-08-21T07:45:55;29.50;50.72
68128;SHT30;54931;52.098;21.006;2022-08-21T07:48:23;29.47;50.84
68128;SHT30;54931;52.098;21.006;2022-08-21T07:50:51;29.61;51.60
68128;SHT30;54931;52.098;21.006;2022-08-21T07:53:18;29.74;50.61
68128;SHT30;54931;52.098;21.006;2022-08-21T07:55:46;29.72;50.60
68128;SHT30;54931;52.098;21.006;2022-08-21T07:58:13;29.69;50.46
68128;SHT30;54931;52.098;21.006;2022-08-21T08:00:40;29.75;50.15
68128;SHT30;54931;52.098;21.006;2022-08-21T08:03:08;29.69;50.31
68128;SHT30;54931;52.098;21.006;2022-08-21T08:05:35;29.62;50.14
68128;SHT30;54931;52.098;21.006;2022-08-21T08:08:05;29.51;50.60
68128;SHT30;54931;52.098;21.006;2022-08-21T08:10:33;29.36;50.12
68128;SHT30;54931;52.098;21.006;2022-08-21T08:13:02;29.28;50.72
68128;SHT30;54931;52.098;21.006;2022-08-21T08:15:30;29.43;50.84
68128;SHT30;54931;52.098;21.006;2022-08-21T08:17:58;29.53;50.61
68128;SHT30;54931;52.098;21.006;2022-08-21T08:20:25;29.60;50.40
68128;SHT30;54931;52.098;21.006;2022-08-21T08:22:53;29.61;49.77
68128;SHT30;54931;52.098;21.006;2022-08-21T08:25:22;29.63;49.87
68128;SHT30;54931;52.098;21.006;2022-08-21T08:27:52;29.79;50.16
68128;SHT30;54931;52.098;21.006;2022-08-21T08:30:20;29.98;50.16
68128;SHT30;54931;52.098;21.006;2022-08-21T08:32:50;30.17;49.06
68128;SHT30;54931;52.098;21.006;2022-08-21T08:35:18;30.24;48.93
68128;SHT30;54931;52.098;21.006;2022-08-21T08:37:46;30.08;48.44
68128;SHT30;54931;52.098;21.006;2022-08-21T08:41:02;29.99;48.83
68128;SHT30;54931;52.098;21.006;2022-08-21T08:43:13;29.98;48.82
68128;SHT30;54931;52.098;21.006;2022-08-21T08:45:42;30.01;49.16
68128;SHT30;54931;52.098;21.006;2022-08-21T08:48:21;30.27;49.84
68128;SHT30;54931;52.098;21.006;2022-08-21T08:51:25;30.49;48.41
68128;SHT30;54931;52.098;21.006;2022-08-21T08:54:02;30.53;47.20
68128;SHT30;54931;52.098;21.006;2022-08-21T08:56:35;30.60;47.42
68128;SHT30;54931;52.098;21.006;2022-08-21T08:59:08;30.66;47.16
68128;SHT30;54931;52.098;21.006;2022-08-21T09:01:49;30.71;47.49
68128;SHT30;54931;52.098;21.006;2022-08-21T09:04:19;30.75;46.69
68128;SHT30;54931;52.098;21.006;2022-08-21T09:07:05;30.53;45.85
68128;SHT30;54931;52.098;21.006;2022-08-21T09:15:36;30.52;46.95
68128;SHT30;54931;52.098;21.006;2022-08-21T09:26:22;31.10;45.85
68128;SHT30;54931;52.098;21.006;2022-08-21T09:28:54;31.43;45.46
68128;SHT30;54931;52.098;21.006;2022-08-21T09:31:28;31.64;44.87
68128;SHT30;54931;52.098;21.006;2022-08-21T09:34:00;31.58;44.13
68128;SHT30;54931;52.098;21.006;2022-08-21T09:36:48;31.60;44.56
68128;SHT30;54931;52.098;21.006;2022-08-21T09:42:05;31.12;45.06
68128;SHT30;54931;52.098;21.006;2022-08-21T09:44:37;30.98;44.56
68128;SHT30;54931;52.098;21.006;2022-08-21T09:47:10;30.66;44.91
68128;SHT30;54931;52.098;21.006;2022-08-21T09:49:42;30.55;45.34
68128;SHT30;54931;52.098;21.006;2022-08-21T09:52:22;30.72;45.26
68128;SHT30;54931;52.098;21.006;2022-08-21T09:54:54;30.90;44.96
68128;SHT30;54931;52.098;21.006;2022-08-21T09:57:25;30.75;45.03
68128;SHT30;54931;52.098;21.006;2022-08-21T10:02:48;29.98;45.88
68128;SHT30;54931;52.098;21.006;2022-08-21T10:05:20;29.53;47.03
68128;SHT30;54931;52.098;21.006;2022-08-21T10:07:51;29.65;48.46
68128;SHT30;54931;52.098;21.006;2022-08-21T10:10:21;29.91;46.62
68128;SHT30;54931;52.098;21.006;2022-08-21T10:13:00;29.94;46.96
68128;SHT30;54931;52.098;21.006;2022-08-21T10:15:58;29.92;46.90
68128;SHT30;54931;52.098;21.006;2022-08-21T10:24:45;29.74;46.92
68128;SHT30;54931;52.098;21.006;2022-08-21T10:39:48;29.41;48.02
68128;SHT30;54931;52.098;21.006;2022-08-21T10:55:18;28.91;47.47
68128;SHT30;54931;52.098;21.006;2022-08-21T10:58:11;28.95;48.13
68128;SHT30;54931;52.098;21.006;2022-08-21T11:01:38;29.06;47.45
68128;SHT30;54931;52.098;21.006;2022-08-21T11:07:16;29.23;47.63
68128;SHT30;54931;52.098;21.006;2022-08-21T11:10:17;29.34;46.29
68128;SHT30;54931;52.098;21.006;2022-08-21T11:12:54;29.32;45.74
68128;SHT30;54931;52.098;21.006;2022-08-21T11:15:42;29.29;46.08
68128;SHT30;54931;52.098;21.006;2022-08-21T11:18:21;29.23;46.34
68128;SHT30;54931;52.098;21.006;2022-08-21T11:27:45;29.24;46.17
68128;SHT30;54931;52.098;21.006;2022-08-21T11:36:47;29.72;45.56
68128;SHT30;54931;52.098;21.006;2022-08-21T11:45:52;30.18;45.94
68128;SHT30;54931;52.098;21.006;2022-08-21T11:51:21;30.42;45.12
68128;SHT30;54931;52.098;21.006;2022-08-21T12:00:07;30.34;45.39
68128;SHT30;54931;52.098;21.006;2022-08-21T12:02:48;30.22;44.54
68128;SHT30;54931;52.098;21.006;2022-08-21T12:08:09;30.21;45.74
68128;SHT30;54931;52.098;21.006;2022-08-21T12:11:02;30.22;44.68
68128;SHT30;54931;52.098;21.006;2022-08-21T12:13:56;30.01;45.03
68128;SHT30;54931;52.098;21.006;2022-08-21T12:16:40;29.67;45.33
68128;SHT30;54931;52.098;21.006;2022-08-21T12:19:14;29.48;45.89
68128;SHT30;54931;52.098;21.006;2022-08-21T12:27:01;29.11;47.11
68128;SHT30;54931;52.098;21.006;2022-08-21T12:30:19;29.01;47.75
68128;SHT30;54931;52.098;21.006;2022-08-21T12:32:58;29.08;47.64
68128;SHT30;54931;52.098;21.006;2022-08-21T12:35:31;29.25;48.09
68128;SHT30;54931;52.098;21.006;2022-08-21T12:38:12;29.36;47.65
68128;SHT30;54931;52.098;21.006;2022-08-21T12:43:35;29.56;46.50
68128;SHT30;54931;52.098;21.006;2022-08-21T12:46:32;29.66;46.86
68128;SHT30;54931;52.098;21.006;2022-08-21T12:49:14;29.77;44.53
68128;SHT30;54931;52.098;21.006;2022-08-21T12:54:23;29.64;44.84
68128;SHT30;54931;52.098;21.006;2022-08-21T12:57:04;29.63;45.32
68128;SHT30;54931;52.098;21.006;2022-08-21T12:59:38;29.60;45.57
68128;SHT30;54931;52.098;21.006;2022-08-21T13:02:13;29.65;45.53
68128;SHT30;54931;52.098;21.006;2022-08-21T13:04:46;29.70;45.53
68128;SHT30;54931;52.098;21.006;2022-08-21T13:07:29;29.72;45.42
68128;SHT30;54931;52.098;21.006;2022-08-21T13:10:13;29.75;45.41
68128;SHT30;54931;52.098;21.006;2022-08-21T13:12:54;29.90;45.82
68128;SHT30;54931;52.098;21.006;2022-08-21T13:15:30;30.13;45.61
68128;SHT30;54931;52.098;21.006;2022-08-21T13:18:01;30.31;44.89
68128;SHT30;54931;52.098;21.006;2022-08-21T13:20:32;30.41;44.54
68128;SHT30;54931;52.098;21.006;2022-08-21T13:23:03;30.33;44.26
68128;SHT30;54931;52.098;21.006;2022-08-21T13:25:49;30.05;45.11
68128;SHT30;54931;52.098;21.006;2022-08-21T13:28:17;29.82;45.95
68128;SHT30;54931;52.098;21.006;2022-08-21T13:30:46;29.59;46.23
68128;SHT30;54931;52.098;21.006;2022-08-21T13:33:21;29.37;46.87
68128;SHT30;54931;52.098;21.006;2022-08-21T13:38:24;29.03;47.30
68128;SHT30;54931;52.098;21.006;2022-08-21T13:41:02;28.87;47.63
68128;SHT30;54931;52.098;21.006;2022-08-21T13:43:37;28.82;47.97
68128;SHT30;54931;52.098;21.006;2022-08-21T13:46:09;28.84;48.19
68128;SHT30;54931;52.098;21.006;2022-08-21T13:48:41;28.92;48.29
68128;SHT30;54931;52.098;21.006;2022-08-21T13:51:09;28.99;48.53
68128;SHT30;54931;52.098;21.006;2022-08-21T13:56:08;29.24;48.13
68128;SHT30;54931;52.098;21.006;2022-08-21T13:58:43;29.37;47.79
68128;SHT30;54931;52.098;21.006;2022-08-21T14:01:33;29.51;47.70
68128;SHT30;54931;52.098;21.006;2022-08-21T14:04:42;29.72;47.41
68128;SHT30;54931;52.098;21.006;2022-08-21T14:07:31;29.74;46.98
68128;SHT30;54931;52.098;21.006;2022-08-21T14:10:16;29.70;46.65
68128;SHT30;54931;52.098;21.006;2022-08-21T14:15:23;29.54;46.78
68128;SHT30;54931;52.098;21.006;2022-08-21T14:18:05;29.40;46.58
68128;SHT30;54931;52.098;21.006;2022-08-21T14:20:43;29.12;46.80
68128;SHT30;54931;52.098;21.006;2022-08-21T14:23:11;29.05;47.38
68128;SHT30;54931;52.098;21.006;2022-08-21T14:25:52;29.02;47.91
68128;SHT30;54931;52.098;21.006;2022-08-21T14:28:32;29.13;48.09
68128;SHT30;54931;52.098;21.006;2022-08-21T14:31:19;29.26;47.26
68128;SHT30;54931;52.098;21.006;2022-08-21T14:33:48;29.26;47.21
68128;SHT30;54931;52.098;21.006;2022-08-21T14:36:16;29.39;47.43
68128;SHT30;54931;52.098;21.006;2022-08-21T14:38:44;29.55;47.51
68128;SHT30;54931;52.098;21.006;2022-08-21T14:41:21;29.65;47.06
68128;SHT30;54931;52.098;21.006;2022-08-21T14:43:54;29.67;46.81
68128;SHT30;54931;52.098;21.006;2022-08-21T14:46:25;29.67;46.59
68128;SHT30;54931;52.098;21.006;2022-08-21T14:48:56;29.65;46.62
68128;SHT30;54931;52.098;21.006;2022-08-21T14:51:24;29.59;46.30
68128;SHT30;54931;52.098;21.006;2022-08-21T14:53:51;29.53;46.91
68128;SHT30;54931;52.098;21.006;2022-08-21T14:56:19;29.58;46.87
68128;SHT30;54931;52.098;21.006;2022-08-21T14:58:47;29.66;46.19
68128;SHT30;54931;52.098;21.006;2022-08-21T15:01:19;29.66;46.06
68128;SHT30;54931;52.098;21.006;2022-08-21T15:03:49;29.66;46.01
68128;SHT30;54931;52.098;21.006;2022-08-21T15:06:17;29.67;45.96
68128;SHT30;54931;52.098;21.006;2022-08-21T15:08:47;29.66;45.41
68128;SHT30;54931;52.098;21.006;2022-08-21T15:11:20;29.67;45.79
68128;SHT30;54931;52.098;21.006;2022-08-21T15:13:55;29.73;46.15
68128;SHT30;54931;52.098;21.006;2022-08-21T15:16:27;29.67;45.73
68128;SHT30;54931;52.098;21.006;2022-08-21T15:18:59;29.58;45.91
68128;SHT30;54931;52.098;21.006;2022-08-21T15:21:27;29.52;46.04
68128;SHT30;54931;52.098;21.006;2022-08-21T15:23:54;29.50;46.14
68128;SHT30;54931;52.098;21.006;2022-08-21T15:26:22;29.31;45.90
68128;SHT30;54931;52.098;21.006;2022-08-21T15:28:51;29.07;46.32
68128;SHT30;54931;52.098;21.006;2022-08-21T15:31:19;28.94;46.85
68128;SHT30;54931;52.098;21.006;2022-08-21T15:33:47;29.00;46.93
68128;SHT30;54931;52.098;21.006;2022-08-21T15:36:14;28.97;46.82
68128;SHT30;54931;52.098;21.006;2022-08-21T15:38:41;28.90;47.19
68128;SHT30;54931;52.098;21.006;2022-08-21T15:41:11;28.92;47.62
68128;SHT30;54931;52.098;21.006;2022-08-21T15:43:45;28.89;46.84
68128;SHT30;54931;52.098;21.006;2022-08-21T15:46:19;28.81;46.85
68128;SHT30;54931;52.098;21.006;2022-08-21T15:48:48;28.77;46.82
68128;SHT30;54931;52.098;21.006;2022-08-21T15:51:16;28.72;46.94
68128;SHT30;54931;52.098;21.006;2022-08-21T15:53:44;28.64;46.98
68128;SHT30;54931;52.098;21.006;2022-08-21T15:59:06;28.59;47.63
68128;SHT30;54931;52.098;21.006;2022-08-21T16:01:41;28.55;47.85
68128;SHT30;54931;52.098;21.006;2022-08-21T16:04:09;28.43;48.54
68128;SHT30;54931;52.098;21.006;2022-08-21T16:06:44;28.31;48.97
68128;SHT30;54931;52.098;21.006;2022-08-21T16:09:12;28.17;49.52
68128;SHT30;54931;52.098;21.006;2022-08-21T16:11:39;28.13;49.95
68128;SHT30;54931;52.098;21.006;2022-08-21T16:14:07;28.14;49.95
68128;SHT30;54931;52.098;21.006;2022-08-21T16:16:36;28.27;49.99
68128;SHT30;54931;52.098;21.006;2022-08-21T16:19:05;28.37;49.89
68128;SHT30;54931;52.098;21.006;2022-08-21T16:21:33;28.33;50.07
68128;SHT30;54931;52.098;21.006;2022-08-21T16:24:02;28.13;50.57
68128;SHT30;54931;52.098;21.006;2022-08-21T16:26:30;28.00;50.99
68128;SHT30;54931;52.098;21.006;2022-08-21T16:28:59;27.88;51.38
68128;SHT30;54931;52.098;21.006;2022-08-21T16:31:29;27.85;51.43
68128;SHT30;54931;52.098;21.006;2022-08-21T16:33:58;27.78;51.47
68128;SHT30;54931;52.098;21.006;2022-08-21T16:36:27;27.62;51.99
68128;SHT30;54931;52.098;21.006;2022-08-21T16:38:55;27.46;52.52
68128;SHT30;54931;52.098;21.006;2022-08-21T16:41:26;27.36;52.80
68128;SHT30;54931;52.098;21.006;2022-08-21T16:43:59;27.26;53.12
68128;SHT30;54931;52.098;21.006;2022-08-21T16:46:31;27.02;53.81
68128;SHT30;54931;52.098;21.006;2022-08-21T16:49:04;26.83;54.27
68128;SHT30;54931;52.098;21.006;2022-08-21T16:51:31;26.68;54.68
68128;SHT30;54931;52.098;21.006;2022-08-21T16:53:59;26.59;54.75
68128;SHT30;54931;52.098;21.006;2022-08-21T16:56:28;26.55;55.00
68128;SHT30;54931;52.098;21.006;2022-08-21T16:58:56;26.43;55.31
68128;SHT30;54931;52.098;21.006;2022-08-21T17:01:27;26.37;55.29
68128;SHT30;54931;52.098;21.006;2022-08-21T17:03:58;26.32;55.39
68128;SHT30;54931;52.098;21.006;2022-08-21T17:06:26;26.25;55.49
68128;SHT30;54931;52.098;21.006;2022-08-21T17:08:56;26.10;55.80
68128;SHT30;54931;52.098;21.006;2022-08-21T17:11:29;25.95;56.04
68128;SHT30;54931;52.098;21.006;2022-08-21T17:14:01;25.83;56.39
68128;SHT30;54931;52.098;21.006;2022-08-21T17:16:40;25.69;56.75
68128;SHT30;54931;52.098;21.006;2022-08-21T17:19:12;25.59;56.89
68128;SHT30;54931;52.098;21.006;2022-08-21T17:21:40;25.44;57.43
68128;SHT30;54931;52.098;21.006;2022-08-21T17:24:08;25.35;57.48
68128;SHT30;54931;52.098;21.006;2022-08-21T17:26:35;25.27;57.73
68128;SHT30;54931;52.098;21.006;2022-08-21T17:29:03;25.18;58.17
68128;SHT30;54931;52.098;21.006;2022-08-21T17:31:35;25.09;58.33
68128;SHT30;54931;52.098;21.006;2022-08-21T17:34:05;25.02;58.43
68128;SHT30;54931;52.098;21.006;2022-08-21T17:36:33;25.00;58.71